Time;durP1;ratioP1;P1;durP2;ratioP2;P2;SDS_P1;SDS_P2;PMS_P1;PMS_P2;Temp;Humidity;BMP_temperature;BMP_pressure;BME280_temperature;BME280_humidity;BME280_pressure;Samples;Min_cycle;Max_cycle;Signal;HPM_P1;HPM_P2
2021/07/21 00:01:37;;;;;;;10.40;6.53;;;;;;;;;;3585214;40;20062;-58
2021/07/21 00:04:02;;;;;;;9.77;6.13;;;;;;;;;;3586958;40;20070;-57
2021/07/21 00:06:28;;;;;;;10.60;6.25;;;;;;;;;;3585833;40;20028;-58
2021/07/21 00:08:53;;;;;;;8.07;6.35;;;;;;;;;;3585362;40;20032;-59
2021/07/21 00:14:13;;;;;;;14.30;6.32;;;;;;;;;;3586376;40;20033;-58
2021/07/21 00:16:42;;;;;;;9.95;5.93;;;;;;;;;;3585755;40;20051;-58
2021/07/21 00:21:52;;;;;;;10.52;6.15;;;;;;;;;;3584857;40;20033;-55
2021/07/21 00:24:17;;;;;;;7.82;6.20;;;;;;;;;;3585877;40;20040;-57
2021/07/21 00:26:43;;;;;;;7.75;5.95;;;;;;;;;;3586080;40;20045;-55
2021/07/21 00:29:09;;;;;;;9.38;6.47;;;;;;;;;;3586680;40;20028;-57
2021/07/21 00:31:34;;;;;;;10.60;6.60;;;;;;;;;;3585241;40;20051;-58
2021/07/21 00:34:00;;;;;;;7.28;5.78;;;;;;;;;;3586157;40;20040;-57
2021/07/21 00:36:26;;;;;;;8.10;5.80;;;;;;;;;;3586059;40;20048;-56
2021/07/21 00:38:52;;;;;;;7.82;6.30;;;;;;;;;;3585178;40;20321;-56
2021/07/21 00:41:17;;;;;;;9.38;6.05;;;;;;;;;;3585957;40;20029;-57
2021/07/21 00:43:43;;;;;;;11.02;6.25;;;;;;;;;;3586129;40;20028;-56
2021/07/21 00:46:08;;;;;;;10.02;6.45;;;;;;;;;;3586692;40;20272;-55
2021/07/21 00:48:34;;;;;;;9.75;6.30;;;;;;;;;;3585794;40;20072;-57
2021/07/21 00:50:59;;;;;;;8.32;6.03;;;;;;;;;;3584392;40;20055;-58
2021/07/21 00:53:25;;;;;;;9.32;6.82;;;;;;;;;;3585078;40;20056;-57
2021/07/21 00:55:52;;;;;;;10.70;7.15;;;;;;;;;;3585458;40;20037;-56
2021/07/21 00:58:18;;;;;;;9.20;6.57;;;;;;;;;;3585770;40;20398;-56
2021/07/21 01:00:43;;;;;;;11.52;7.40;;;;;;;;;;3584809;40;20048;-57
2021/07/21 01:03:09;;;;;;;17.42;7.70;;;;;;;;;;3584507;40;20029;-56
2021/07/21 01:05:41;;;;;;;10.85;7.50;;;;;;;;;;3585486;40;20032;-56
2021/07/21 01:08:08;;;;;;;7.80;6.60;;;;;;;;;;3583243;40;20077;-56
2021/07/21 01:10:33;;;;;;;10.25;6.50;;;;;;;;;;3583859;40;20045;-56
2021/07/21 01:13:10;;;;;;;10.98;7.10;;;;;;;;;;3585876;40;20059;-57
2021/07/21 01:15:45;;;;;;;11.02;6.95;;;;;;;;;;3586059;40;20058;-56
2021/07/21 01:18:33;;;;;;;9.13;6.60;;;;;;;;;;3585651;40;20029;-56
2021/07/21 01:21:17;;;;;;;9.63;6.97;;;;;;;;;;3585568;40;20028;-56
2021/07/21 01:23:48;;;;;;;14.00;6.60;;;;;;;;;;3584977;40;20119;-54
2021/07/21 01:26:31;;;;;;;10.43;7.55;;;;;;;;;;3585325;40;20024;-56
2021/07/21 01:28:58;;;;;;;9.57;6.75;;;;;;;;;;3583961;40;20064;-57
2021/07/21 01:31:33;;;;;;;8.85;7.13;;;;;;;;;;3585754;40;20048;-56
2021/07/21 01:34:00;;;;;;;11.18;8.30;;;;;;;;;;3585701;40;20068;-55
2021/07/21 01:36:32;;;;;;;11.80;7.05;;;;;;;;;;3585590;40;20032;-57
2021/07/21 01:39:03;;;;;;;10.80;8.75;;;;;;;;;;3586178;40;20031;-58
2021/07/21 01:41:36;;;;;;;8.80;7.43;;;;;;;;;;3585564;40;20045;-57
2021/07/21 01:44:06;;;;;;;13.15;7.05;;;;;;;;;;3585963;40;20272;-57
2021/07/21 01:46:32;;;;;;;12.55;7.95;;;;;;;;;;3584139;40;20364;-57
2021/07/21 01:49:00;;;;;;;8.25;7.28;;;;;;;;;;3585296;40;20084;-57
2021/07/21 01:51:28;;;;;;;11.63;7.38;;;;;;;;;;3585498;40;20051;-57
2021/07/21 01:53:55;;;;;;;10.88;8.18;;;;;;;;;;3585652;40;20036;-56
2021/07/21 01:56:22;;;;;;;9.95;7.90;;;;;;;;;;3585827;40;20033;-56
2021/07/21 01:58:52;;;;;;;11.63;8.10;;;;;;;;;;3585870;40;20056;-56
2021/07/21 02:01:18;;;;;;;12.27;7.53;;;;;;;;;;3585400;40;20041;-58
2021/07/21 02:03:45;;;;;;;15.23;7.97;;;;;;;;;;3585043;40;20037;-57
2021/07/21 02:06:12;;;;;;;8.23;7.10;;;;;;;;;;3585470;40;20051;-56
2021/07/21 02:08:38;;;;;;;9.25;7.97;;;;;;;;;;3584934;40;20032;-57
2021/07/21 02:11:05;;;;;;;8.93;6.82;;;;;;;;;;3584869;40;20093;-58
2021/07/21 02:13:32;;;;;;;11.48;9.02;;;;;;;;;;3581796;40;20044;-59
2021/07/21 02:15:59;;;;;;;10.70;9.00;;;;;;;;;;3585614;40;20039;-58
2021/07/21 02:18:25;;;;;;;11.73;8.65;;;;;;;;;;3585809;40;20033;-59
2021/07/21 02:20:52;;;;;;;16.15;11.63;;;;;;;;;;3585174;40;20108;-58
2021/07/21 02:23:20;;;;;;;9.80;7.05;;;;;;;;;;3585002;40;20369;-59
2021/07/21 02:25:48;;;;;;;13.10;7.90;;;;;;;;;;3586788;40;20028;-59
2021/07/21 02:28:14;;;;;;;13.35;7.60;;;;;;;;;;3585912;40;20129;-60
2021/07/21 02:30:44;;;;;;;11.43;6.03;;;;;;;;;;3584961;40;20052;-58
2021/07/21 02:33:19;;;;;;;12.50;7.55;;;;;;;;;;3586389;40;20064;-59
2021/07/21 02:35:45;;;;;;;15.35;6.82;;;;;;;;;;3587044;40;20364;-58
2021/07/21 02:38:13;;;;;;;8.77;6.55;;;;;;;;;;3587269;40;20060;-58
2021/07/21 02:40:39;;;;;;;8.60;7.35;;;;;;;;;;3586064;40;20040;-59
2021/07/21 02:43:05;;;;;;;9.82;8.40;;;;;;;;;;3585514;40;20052;-59
2021/07/21 02:45:31;;;;;;;9.18;8.23;;;;;;;;;;3586882;40;20103;-58
2021/07/21 02:47:56;;;;;;;9.98;6.72;;;;;;;;;;3586936;40;20033;-59
2021/07/21 02:50:22;;;;;;;10.38;7.55;;;;;;;;;;3586516;40;20065;-59
2021/07/21 02:52:57;;;;;;;11.30;6.50;;;;;;;;;;3587046;40;20056;-59
2021/07/21 02:55:29;;;;;;;9.93;6.15;;;;;;;;;;3586938;40;20041;-59
2021/07/21 02:58:01;;;;;;;9.50;6.63;;;;;;;;;;3585872;40;20041;-60
2021/07/21 03:00:29;;;;;;;8.38;6.10;;;;;;;;;;3586723;40;20456;-59
2021/07/21 03:02:56;;;;;;;11.00;7.00;;;;;;;;;;3586904;40;20435;-59
2021/07/21 03:05:25;;;;;;;8.75;6.90;;;;;;;;;;3586364;40;20040;-59
2021/07/21 03:07:54;;;;;;;10.18;7.65;;;;;;;;;;3586389;40;20053;-59
2021/07/21 03:10:20;;;;;;;14.88;8.18;;;;;;;;;;3586750;40;20029;-59
2021/07/21 03:12:51;;;;;;;14.02;7.55;;;;;;;;;;3585894;40;20391;-58
2021/07/21 03:15:16;;;;;;;9.00;7.32;;;;;;;;;;3586120;40;20484;-59
2021/07/21 03:17:48;;;;;;;9.05;7.53;;;;;;;;;;3586785;40;20028;-59
2021/07/21 03:20:16;;;;;;;9.05;7.60;;;;;;;;;;3586235;40;20033;-59
2021/07/21 03:22:43;;;;;;;10.50;7.53;;;;;;;;;;3585723;40;20056;-59
2021/07/21 03:25:11;;;;;;;8.02;7.13;;;;;;;;;;3586787;40;20041;-59
2021/07/21 03:27:38;;;;;;;9.15;6.75;;;;;;;;;;3585259;40;20029;-59
2021/07/21 03:30:10;;;;;;;8.57;7.03;;;;;;;;;;3586499;40;20044;-59
2021/07/21 03:32:36;;;;;;;10.85;6.90;;;;;;;;;;3586085;40;20040;-59
2021/07/21 03:35:04;;;;;;;10.10;7.55;;;;;;;;;;3586245;40;20065;-59
2021/07/21 03:37:31;;;;;;;10.07;7.78;;;;;;;;;;3586241;40;20051;-59
2021/07/21 03:39:58;;;;;;;12.05;7.60;;;;;;;;;;3584448;40;20073;-58
2021/07/21 03:42:28;;;;;;;9.63;7.35;;;;;;;;;;3586511;40;20029;-59
2021/07/21 03:44:59;;;;;;;14.13;7.47;;;;;;;;;;3586799;40;20021;-58
2021/07/21 03:47:25;;;;;;;10.32;7.07;;;;;;;;;;3586436;40;20036;-59
2021/07/21 03:49:51;;;;;;;8.18;6.35;;;;;;;;;;3585969;40;20048;-59
2021/07/21 03:52:17;;;;;;;8.63;6.63;;;;;;;;;;3586099;40;20079;-59
2021/07/21 03:54:44;;;;;;;9.57;6.28;;;;;;;;;;3585814;40;20032;-58
2021/07/21 03:57:11;;;;;;;10.55;7.43;;;;;;;;;;3586665;40;20114;-58
2021/07/21 03:59:37;;;;;;;13.48;7.25;;;;;;;;;;3584103;40;20129;-59
2021/07/21 04:02:05;;;;;;;9.07;6.97;;;;;;;;;;3585655;40;20072;-58
2021/07/21 04:04:31;;;;;;;10.25;7.55;;;;;;;;;;3586527;40;20029;-58
2021/07/21 04:06:58;;;;;;;12.27;7.95;;;;;;;;;;3585784;40;20042;-59
2021/07/21 04:09:25;;;;;;;12.90;7.78;;;;;;;;;;3586376;40;20056;-58
2021/07/21 04:11:54;;;;;;;13.05;7.43;;;;;;;;;;3585374;40;20039;-58
2021/07/21 04:14:20;;;;;;;12.02;7.10;;;;;;;;;;3585636;40;20033;-58
2021/07/21 04:16:49;;;;;;;11.98;7.25;;;;;;;;;;3586390;40;20311;-58
2021/07/21 04:19:15;;;;;;;9.13;6.95;;;;;;;;;;3585774;40;20045;-58
2021/07/21 04:21:45;;;;;;;11.05;7.68;;;;;;;;;;3585127;40;20375;-57
2021/07/21 04:24:12;;;;;;;10.07;7.40;;;;;;;;;;3585770;40;20393;-58
2021/07/21 04:26:40;;;;;;;8.88;7.70;;;;;;;;;;3584710;40;20358;-58
2021/07/21 04:29:09;;;;;;;9.90;7.60;;;;;;;;;;3586413;40;20442;-58
2021/07/21 04:31:37;;;;;;;12.88;7.53;;;;;;;;;;3585384;40;20114;-58
2021/07/21 04:34:03;;;;;;;9.27;6.32;;;;;;;;;;3586059;40;20045;-58
2021/07/21 04:36:29;;;;;;;11.38;6.88;;;;;;;;;;3586796;40;20048;-59
2021/07/21 04:38:55;;;;;;;12.88;7.25;;;;;;;;;;3586767;40;20143;-59
2021/07/21 04:41:23;;;;;;;10.25;7.00;;;;;;;;;;3586454;40;20036;-59
2021/07/21 04:43:49;;;;;;;12.05;7.20;;;;;;;;;;3586043;40;20029;-57
2021/07/21 04:46:16;;;;;;;10.25;6.55;;;;;;;;;;3586542;40;20111;-58
2021/07/21 04:48:43;;;;;;;7.68;6.43;;;;;;;;;;3585047;40;20052;-59
2021/07/21 04:51:10;;;;;;;8.68;6.35;;;;;;;;;;3586234;40;20032;-59
2021/07/21 04:53:36;;;;;;;7.55;6.82;;;;;;;;;;3586116;40;20130;-59
2021/07/21 04:56:02;;;;;;;11.13;8.05;;;;;;;;;;3586617;40;20039;-60
2021/07/21 04:58:28;;;;;;;10.65;7.03;;;;;;;;;;3586435;40;20040;-59
2021/07/21 05:00:56;;;;;;;10.15;6.63;;;;;;;;;;3584976;40;20033;-59
2021/07/21 05:03:22;;;;;;;7.93;6.15;;;;;;;;;;3585744;40;20039;-59
2021/07/21 05:05:47;;;;;;;9.30;5.63;;;;;;;;;;3584137;40;20576;-59
2021/07/21 05:08:12;;;;;;;9.05;6.32;;;;;;;;;;3588184;40;20045;-59
2021/07/21 05:10:40;;;;;;;8.82;5.88;;;;;;;;;;3585887;40;20033;-59
2021/07/21 05:13:06;;;;;;;7.53;5.60;;;;;;;;;;3585776;40;20044;-59
2021/07/21 05:15:32;;;;;;;13.75;6.20;;;;;;;;;;3586083;40;20056;-60
2021/07/21 05:17:57;;;;;;;10.02;5.85;;;;;;;;;;3585577;40;20045;-59
2021/07/21 05:20:23;;;;;;;9.93;6.05;;;;;;;;;;3586394;40;20415;-59
2021/07/21 05:22:48;;;;;;;7.53;5.80;;;;;;;;;;3585622;40;20032;-59
2021/07/21 05:25:15;;;;;;;7.25;5.68;;;;;;;;;;3585623;40;20039;-59
2021/07/21 05:27:40;;;;;;;10.13;6.50;;;;;;;;;;3585773;40;20064;-58
2021/07/21 05:30:07;;;;;;;12.98;6.18;;;;;;;;;;3585293;40;20044;-59
2021/07/21 05:32:32;;;;;;;7.00;5.68;;;;;;;;;;3586009;40;20044;-59
2021/07/21 05:34:57;;;;;;;7.47;5.82;;;;;;;;;;3586057;40;20044;-58
2021/07/21 05:37:23;;;;;;;7.55;5.65;;;;;;;;;;3585707;40;20037;-59
2021/07/21 05:39:49;;;;;;;16.65;6.05;;;;;;;;;;3586464;40;20044;-59
2021/07/21 05:42:14;;;;;;;10.07;6.53;;;;;;;;;;3585101;40;20471;-59
2021/07/21 05:44:40;;;;;;;7.63;4.82;;;;;;;;;;3583227;40;20037;-59
2021/07/21 05:47:06;;;;;;;6.95;5.28;;;;;;;;;;3584713;40;20032;-58
2021/07/21 05:49:31;;;;;;;7.35;5.05;;;;;;;;;;3585984;40;20051;-58
2021/07/21 05:51:57;;;;;;;9.65;5.30;;;;;;;;;;3584285;40;20067;-59
2021/07/21 05:54:22;;;;;;;12.32;4.95;;;;;;;;;;3584081;40;20040;-59
2021/07/21 05:56:48;;;;;;;11.63;5.18;;;;;;;;;;3582855;40;20142;-59
2021/07/21 05:59:13;;;;;;;7.88;5.35;;;;;;;;;;3583867;40;20047;-58
2021/07/21 06:01:39;;;;;;;6.80;4.68;;;;;;;;;;3584208;40;20279;-59
2021/07/21 06:04:05;;;;;;;7.07;4.65;;;;;;;;;;3583831;40;20574;-58
2021/07/21 06:06:31;;;;;;;7.40;5.20;;;;;;;;;;3584066;40;20029;-59
2021/07/21 06:08:57;;;;;;;7.95;4.80;;;;;;;;;;3584066;40;20037;-59
2021/07/21 06:11:22;;;;;;;7.38;4.70;;;;;;;;;;3585339;40;20043;-59
2021/07/21 06:13:48;;;;;;;9.10;4.93;;;;;;;;;;3584455;40;20037;-59
2021/07/21 06:16:15;;;;;;;5.97;4.45;;;;;;;;;;3582351;40;20025;-59
2021/07/21 06:18:42;;;;;;;15.18;4.85;;;;;;;;;;3584274;40;20039;-60
2021/07/21 06:21:08;;;;;;;8.52;4.80;;;;;;;;;;3583858;40;20330;-59
2021/07/21 06:23:33;;;;;;;8.18;5.05;;;;;;;;;;3585188;40;20419;-59
2021/07/21 06:25:59;;;;;;;6.45;4.95;;;;;;;;;;3585446;40;20028;-59
2021/07/21 06:28:24;;;;;;;12.73;5.07;;;;;;;;;;3585092;40;20037;-59
2021/07/21 06:30:50;;;;;;;10.77;5.15;;;;;;;;;;3584123;40;20380;-59
2021/07/21 06:33:18;;;;;;;8.20;4.45;;;;;;;;;;3583791;40;20060;-59
2021/07/21 06:35:48;;;;;;;6.60;4.47;;;;;;;;;;3584341;40;20035;-59
2021/07/21 06:38:14;;;;;;;6.72;4.72;;;;;;;;;;3583343;40;20104;-59
2021/07/21 06:40:40;;;;;;;6.72;4.32;;;;;;;;;;3583782;40;20121;-59
2021/07/21 06:43:05;;;;;;;12.60;4.78;;;;;;;;;;3584247;40;20049;-59
2021/07/21 06:45:31;;;;;;;6.78;4.38;;;;;;;;;;3584451;40;20037;-58
2021/07/21 06:47:56;;;;;;;6.13;4.10;;;;;;;;;;3583884;40;20048;-59
2021/07/21 06:50:23;;;;;;;6.55;4.10;;;;;;;;;;3584162;40;20037;-59
2021/07/21 06:52:48;;;;;;;8.40;4.57;;;;;;;;;;3584473;40;20114;-58
2021/07/21 06:55:15;;;;;;;7.10;4.25;;;;;;;;;;3585319;40;20047;-58
2021/07/21 06:57:41;;;;;;;8.98;4.65;;;;;;;;;;3584513;40;20141;-59
2021/07/21 07:00:08;;;;;;;10.25;4.18;;;;;;;;;;3584556;40;20037;-59
2021/07/21 07:02:34;;;;;;;8.57;4.78;;;;;;;;;;3584666;40;20040;-58
2021/07/21 07:04:59;;;;;;;6.28;4.30;;;;;;;;;;3585261;40;20429;-59
2021/07/21 07:07:25;;;;;;;12.55;4.43;;;;;;;;;;3583506;40;20044;-57
2021/07/21 07:09:50;;;;;;;7.28;4.72;;;;;;;;;;3585680;40;20041;-57
2021/07/21 07:12:16;;;;;;;10.93;4.75;;;;;;;;;;3586487;40;20378;-58
2021/07/21 07:14:42;;;;;;;8.13;5.00;;;;;;;;;;3586855;40;20036;-59
2021/07/21 07:17:08;;;;;;;7.90;4.80;;;;;;;;;;3587021;40;20035;-58
2021/07/21 07:19:33;;;;;;;9.13;4.57;;;;;;;;;;3586438;40;20408;-58
2021/07/21 07:21:59;;;;;;;6.30;3.75;;;;;;;;;;3586151;40;20040;-59
2021/07/21 07:24:26;;;;;;;5.78;4.43;;;;;;;;;;3586696;40;20032;-58
2021/07/21 07:26:52;;;;;;;6.20;4.18;;;;;;;;;;3593732;40;20067;-58
2021/07/21 07:29:17;;;;;;;5.57;3.97;;;;;;;;;;3585503;40;20045;-58
2021/07/21 07:31:43;;;;;;;4.88;3.78;;;;;;;;;;3586487;40;20516;-58
2021/07/21 07:34:08;;;;;;;6.75;3.88;;;;;;;;;;3586658;40;20091;-58
2021/07/21 07:36:34;;;;;;;7.93;4.15;;;;;;;;;;3586419;40;20114;-58
2021/07/21 07:39:00;;;;;;;8.70;3.80;;;;;;;;;;3584990;40;20041;-57
2021/07/21 07:41:26;;;;;;;6.60;4.05;;;;;;;;;;3586082;40;20051;-58
2021/07/21 07:43:52;;;;;;;7.25;4.47;;;;;;;;;;3586076;40;20036;-56
2021/07/21 07:46:18;;;;;;;6.80;4.07;;;;;;;;;;3586149;40;20044;-57
2021/07/21 07:48:43;;;;;;;10.93;4.15;;;;;;;;;;3585275;40;20067;-58
2021/07/21 07:51:09;;;;;;;6.78;4.07;;;;;;;;;;3583392;40;20281;-55
2021/07/21 07:53:35;;;;;;;7.50;3.80;;;;;;;;;;3584442;40;20543;-58
2021/07/21 07:56:00;;;;;;;11.00;3.97;;;;;;;;;;3583412;40;20102;-57
2021/07/21 07:58:26;;;;;;;12.68;4.05;;;;;;;;;;3585743;40;20292;-58
2021/07/21 08:00:52;;;;;;;5.05;3.30;;;;;;;;;;3584897;40;20044;-58
2021/07/21 08:03:18;;;;;;;5.53;3.83;;;;;;;;;;3585813;40;20048;-57
2021/07/21 08:05:44;;;;;;;7.07;3.78;;;;;;;;;;3586009;40;20092;-57
2021/07/21 08:08:09;;;;;;;5.03;3.55;;;;;;;;;;3585803;40;20047;-57
2021/07/21 08:10:35;;;;;;;7.32;4.05;;;;;;;;;;3585477;40;20130;-58
2021/07/21 08:13:01;;;;;;;6.88;3.97;;;;;;;;;;3585590;40;20046;-58
2021/07/21 08:15:26;;;;;;;5.63;3.50;;;;;;;;;;3585733;40;20134;-58
2021/07/21 08:17:53;;;;;;;10.48;4.00;;;;;;;;;;3585987;40;20051;-57
2021/07/21 08:20:19;;;;;;;5.80;3.90;;;;;;;;;;3586038;40;20055;-58
2021/07/21 08:22:44;;;;;;;7.07;3.80;;;;;;;;;;3585005;40;20044;-57
2021/07/21 08:25:13;;;;;;;5.38;3.50;;;;;;;;;;3586596;40;20028;-56
2021/07/21 08:27:38;;;;;;;6.25;3.80;;;;;;;;;;3585055;40;20037;-57
2021/07/21 08:30:11;;;;;;;6.10;3.70;;;;;;;;;;3586422;40;20446;-58
2021/07/21 08:32:37;;;;;;;7.88;4.30;;;;;;;;;;3585040;40;20048;-58
2021/07/21 08:35:03;;;;;;;6.80;4.35;;;;;;;;;;3585636;40;20395;-57
2021/07/21 08:37:29;;;;;;;6.72;4.32;;;;;;;;;;3585272;40;20044;-56
2021/07/21 08:39:54;;;;;;;6.80;4.32;;;;;;;;;;3586056;40;20040;-56
2021/07/21 08:42:20;;;;;;;7.00;3.67;;;;;;;;;;3585531;40;20024;-56
2021/07/21 08:44:46;;;;;;;7.40;4.35;;;;;;;;;;3582432;40;20094;-54
2021/07/21 08:47:12;;;;;;;12.70;4.50;;;;;;;;;;3583851;40;20041;-57
2021/07/21 08:49:37;;;;;;;6.00;4.15;;;;;;;;;;3582605;40;20063;-57
2021/07/21 08:52:03;;;;;;;5.78;4.47;;;;;;;;;;3583454;40;20044;-58
2021/07/21 08:54:29;;;;;;;6.90;4.47;;;;;;;;;;3584962;40;20618;-57
2021/07/21 08:56:57;;;;;;;8.10;4.38;;;;;;;;;;3583851;40;20045;-57
2021/07/21 08:59:24;;;;;;;7.47;4.75;;;;;;;;;;3586949;40;20048;-56
2021/07/21 09:01:50;;;;;;;6.60;4.07;;;;;;;;;;3586054;40;20040;-57
2021/07/21 09:04:15;;;;;;;7.10;4.20;;;;;;;;;;3584877;40;20044;-56
2021/07/21 09:06:42;;;;;;;5.60;3.88;;;;;;;;;;3584635;40;20053;-57
2021/07/21 09:09:08;;;;;;;7.53;4.50;;;;;;;;;;3584919;40;20033;-58
2021/07/21 09:11:37;;;;;;;8.00;4.50;;;;;;;;;;3586440;40;20348;-57
2021/07/21 09:14:03;;;;;;;7.00;4.80;;;;;;;;;;3585611;40;20334;-57
2021/07/21 09:16:28;;;;;;;9.00;3.92;;;;;;;;;;3585279;40;20280;-57
2021/07/21 09:18:57;;;;;;;7.97;3.70;;;;;;;;;;3581861;40;20036;-57
2021/07/21 09:21:24;;;;;;;5.22;3.78;;;;;;;;;;3579768;40;20048;-59
2021/07/21 09:23:53;;;;;;;6.25;4.43;;;;;;;;;;3585263;40;20044;-58
2021/07/21 09:26:24;;;;;;;6.88;4.32;;;;;;;;;;3583045;40;20458;-59
2021/07/21 09:28:51;;;;;;;6.25;4.30;;;;;;;;;;3585393;40;20032;-60
2021/07/21 09:31:33;;;;;;;10.70;4.93;;;;;;;;;;3584509;40;20072;-59
2021/07/21 09:34:10;;;;;;;7.60;4.07;;;;;;;;;;3585824;40;20126;-59
2021/07/21 09:36:35;;;;;;;7.85;4.43;;;;;;;;;;3585322;40;20033;-60
2021/07/21 09:39:02;;;;;;;5.25;3.83;;;;;;;;;;3586411;40;20351;-59
2021/07/21 09:41:27;;;;;;;7.50;3.97;;;;;;;;;;3582683;40;20048;-60
2021/07/21 09:44:03;;;;;;;5.82;3.88;;;;;;;;;;3584438;40;20036;-60
2021/07/21 09:46:32;;;;;;;8.38;3.65;;;;;;;;;;3584686;40;20029;-60
2021/07/21 09:48:58;;;;;;;7.60;3.50;;;;;;;;;;3584003;40;20124;-60
2021/07/21 09:51:36;;;;;;;9.50;3.92;;;;;;;;;;3585277;40;20344;-60
2021/07/21 09:54:18;;;;;;;5.47;3.90;;;;;;;;;;3584314;40;20502;-60
2021/07/21 09:56:44;;;;;;;6.88;4.75;;;;;;;;;;3591380;39;20511;-60
2021/07/21 09:59:20;;;;;;;8.00;4.18;;;;;;;;;;3584660;40;20409;-60
2021/07/21 10:01:46;;;;;;;5.38;3.83;;;;;;;;;;3585984;40;20033;-60
2021/07/21 10:04:11;;;;;;;5.40;3.50;;;;;;;;;;3585571;40;20044;-60
2021/07/21 10:06:39;;;;;;;5.00;4.03;;;;;;;;;;3585473;40;20037;-60
2021/07/21 10:09:05;;;;;;;14.95;4.30;;;;;;;;;;3579353;40;20029;-60
2021/07/21 10:11:41;;;;;;;5.78;3.65;;;;;;;;;;3584385;40;20595;-60
2021/07/21 10:14:06;;;;;;;14.73;4.13;;;;;;;;;;3585698;40;20040;-60
2021/07/21 10:16:47;;;;;;;8.27;3.58;;;;;;;;;;3584741;40;20140;-59
2021/07/21 10:19:19;;;;;;;9.57;3.70;;;;;;;;;;3585881;40;20052;-57
2021/07/21 10:21:57;;;;;;;5.60;3.95;;;;;;;;;;3585805;40;20044;-60
2021/07/21 10:24:29;;;;;;;4.68;3.05;;;;;;;;;;3584885;40;20063;-60
2021/07/21 10:26:55;;;;;;;7.53;4.20;;;;;;;;;;3584948;40;20092;-60
2021/07/21 10:29:22;;;;;;;8.73;3.85;;;;;;;;;;3585115;40;20044;-60
2021/07/21 10:31:48;;;;;;;9.40;4.28;;;;;;;;;;3584145;40;20055;-60
2021/07/21 10:34:17;;;;;;;9.73;4.47;;;;;;;;;;3582265;40;20064;-60
2021/07/21 10:36:44;;;;;;;7.10;3.67;;;;;;;;;;3585539;40;20043;-60
2021/07/21 10:39:22;;;;;;;5.60;4.22;;;;;;;;;;3584760;40;20037;-60
2021/07/21 10:41:49;;;;;;;5.85;3.70;;;;;;;;;;3583994;40;20040;-60
2021/07/21 10:44:17;;;;;;;8.95;4.28;;;;;;;;;;3583679;40;20060;-60
2021/07/21 10:46:46;;;;;;;6.28;3.90;;;;;;;;;;3586478;40;20352;-60
2021/07/21 10:49:41;;;;;;;10.45;4.32;;;;;;;;;;3585756;40;20129;-60
2021/07/21 11:00:18;;;;;;;5.13;3.80;;;;;;;;;;3586157;40;20080;-60
2021/07/21 11:02:44;;;;;;;4.65;3.83;;;;;;;;;;3586423;40;20033;-59
2021/07/21 11:05:30;;;;;;;6.25;4.38;;;;;;;;;;3586968;40;20567;-59
2021/07/21 11:07:57;;;;;;;5.50;4.25;;;;;;;;;;3586316;40;20284;-60
2021/07/21 11:10:36;;;;;;;6.63;4.18;;;;;;;;;;3582422;40;20060;-60
2021/07/21 11:13:04;;;;;;;5.63;3.25;;;;;;;;;;3584502;40;20043;-59
2021/07/21 11:15:42;;;;;;;4.35;3.38;;;;;;;;;;3585588;40;20070;-62
2021/07/21 11:18:22;;;;;;;6.35;4.00;;;;;;;;;;3585501;40;20040;-60
2021/07/21 11:21:01;;;;;;;5.03;3.33;;;;;;;;;;3584049;40;20104;-59
2021/07/21 11:23:52;;;;;;;4.28;3.15;;;;;;;;;;3585753;40;20126;-60
2021/07/21 11:26:39;;;;;;;5.70;3.70;;;;;;;;;;3585662;40;20044;-61
2021/07/21 11:29:33;;;;;;;5.13;3.92;;;;;;;;;;3585444;40;20059;-61
2021/07/21 11:32:00;;;;;;;4.82;3.85;;;;;;;;;;3586204;40;20044;-61
2021/07/21 11:34:28;;;;;;;5.40;3.95;;;;;;;;;;3585533;40;20037;-61
2021/07/21 11:37:18;;;;;;;6.55;4.10;;;;;;;;;;3586243;40;20429;-61
2021/07/21 11:39:50;;;;;;;7.83;3.87;;;;;;;;;;3581834;40;20041;-60
2021/07/21 11:42:34;;;;;;;5.53;3.53;;;;;;;;;;3583827;40;20654;-60
2021/07/21 11:45:05;;;;;;;5.50;3.60;;;;;;;;;;3586090;40;20047;-58
2021/07/21 11:47:37;;;;;;;5.97;3.65;;;;;;;;;;3585320;40;20051;-61
2021/07/21 11:50:09;;;;;;;6.07;3.88;;;;;;;;;;3584882;40;20104;-60
2021/07/21 11:52:34;;;;;;;11.10;3.55;;;;;;;;;;3584798;40;20037;-59
2021/07/21 11:55:00;;;;;;;5.38;3.80;;;;;;;;;;3585027;40;20559;-59
2021/07/21 11:57:26;;;;;;;10.15;3.85;;;;;;;;;;3585757;40;20139;-59
2021/07/21 11:59:57;;;;;;;8.70;4.35;;;;;;;;;;3583085;40;20048;-58
2021/07/21 12:02:26;;;;;;;5.07;3.67;;;;;;;;;;3585128;40;20046;-60
2021/07/21 12:04:55;;;;;;;6.03;4.00;;;;;;;;;;3584703;40;20025;-60
2021/07/21 12:07:23;;;;;;;5.03;3.92;;;;;;;;;;3585383;40;20093;-61
2021/07/21 12:09:53;;;;;;;5.57;3.53;;;;;;;;;;3586137;40;20037;-61
2021/07/21 12:12:21;;;;;;;13.07;4.13;;;;;;;;;;3586164;40;20032;-61
2021/07/21 12:14:49;;;;;;;10.55;3.85;;;;;;;;;;3586043;40;20044;-61
2021/07/21 12:17:15;;;;;;;6.82;3.75;;;;;;;;;;3585981;40;20118;-60
2021/07/21 12:19:43;;;;;;;12.05;3.88;;;;;;;;;;3586334;40;20513;-60
2021/07/21 12:22:14;;;;;;;4.68;3.78;;;;;;;;;;3586359;40;20307;-58
2021/07/21 12:24:42;;;;;;;4.90;3.70;;;;;;;;;;3585624;40;20048;-60
2021/07/21 12:27:09;;;;;;;5.68;3.67;;;;;;;;;;3586431;40;20613;-60
2021/07/21 12:29:35;;;;;;;8.13;4.13;;;;;;;;;;3585256;40;20041;-60
2021/07/21 12:32:08;;;;;;;6.13;3.70;;;;;;;;;;3586932;40;20029;-60
2021/07/21 12:34:36;;;;;;;3.95;3.15;;;;;;;;;;3585032;40;20612;-60
2021/07/21 12:37:02;;;;;;;4.72;3.67;;;;;;;;;;3583954;40;20033;-59
2021/07/21 12:39:29;;;;;;;6.95;3.58;;;;;;;;;;3586170;40;20069;-59
2021/07/21 12:42:04;;;;;;;5.07;3.47;;;;;;;;;;3586160;40;20029;-60
2021/07/21 12:44:36;;;;;;;6.03;3.53;;;;;;;;;;3585512;40;20036;-60
2021/07/21 12:47:29;;;;;;;4.38;3.33;;;;;;;;;;3584675;40;20040;-59
2021/07/21 12:50:16;;;;;;;5.15;3.38;;;;;;;;;;3585277;40;20343;-60
2021/07/21 12:53:11;;;;;;;6.45;3.72;;;;;;;;;;3584675;40;20040;-58
2021/07/21 12:55:41;;;;;;;4.53;3.30;;;;;;;;;;3585657;40;20046;-59
2021/07/21 12:58:16;;;;;;;5.25;3.30;;;;;;;;;;3585591;40;20460;-59
2021/07/21 13:00:50;;;;;;;5.18;3.35;;;;;;;;;;3585173;40;20036;-59
2021/07/21 13:03:20;;;;;;;4.85;3.10;;;;;;;;;;3585575;40;20036;-60
2021/07/21 13:05:49;;;;;;;8.75;3.78;;;;;;;;;;3585913;40;20055;-59
2021/07/21 13:08:20;;;;;;;4.15;3.17;;;;;;;;;;3584950;40;20069;-60
2021/07/21 13:10:47;;;;;;;4.50;3.13;;;;;;;;;;3585923;40;20084;-60
2021/07/21 13:13:31;;;;;;;6.68;3.65;;;;;;;;;;3585346;40;20036;-59
2021/07/21 13:16:03;;;;;;;7.03;3.60;;;;;;;;;;3585792;40;20045;-60
2021/07/21 13:18:38;;;;;;;9.38;3.67;;;;;;;;;;3585341;40;20065;-60
2021/07/21 13:21:29;;;;;;;5.93;3.50;;;;;;;;;;3584220;40;20052;-60
2021/07/21 13:23:58;;;;;;;5.82;3.67;;;;;;;;;;3585921;40;20052;-61
2021/07/21 13:26:24;;;;;;;7.88;3.55;;;;;;;;;;3585768;40;20040;-61
2021/07/21 13:28:52;;;;;;;8.68;3.78;;;;;;;;;;3585411;40;20382;-61
2021/07/21 13:31:38;;;;;;;4.80;3.30;;;;;;;;;;3585202;40;20153;-60
2021/07/21 13:34:15;;;;;;;4.90;3.10;;;;;;;;;;3583769;40;20043;-60
2021/07/21 13:36:42;;;;;;;3.85;3.10;;;;;;;;;;3585340;40;20032;-61
2021/07/21 13:39:08;;;;;;;9.52;3.47;;;;;;;;;;3585178;40;20076;-61
2021/07/21 13:41:57;;;;;;;6.13;4.07;;;;;;;;;;3582560;40;20040;-61
2021/07/21 13:44:24;;;;;;;4.75;3.03;;;;;;;;;;3582134;40;20128;-60
2021/07/21 13:46:58;;;;;;;4.72;3.17;;;;;;;;;;3584062;40;20037;-60
2021/07/21 13:49:38;;;;;;;6.75;3.53;;;;;;;;;;3581155;40;20520;-60
2021/07/21 13:52:05;;;;;;;5.57;3.15;;;;;;;;;;3582433;40;20060;-61
2021/07/21 13:54:36;;;;;;;9.50;4.18;;;;;;;;;;3581170;40;20126;-59
2021/07/21 13:57:07;;;;;;;5.70;3.28;;;;;;;;;;3581541;40;20063;-60
2021/07/21 13:59:34;;;;;;;5.25;2.95;;;;;;;;;;3584060;40;20101;-61
2021/07/21 14:02:01;;;;;;;4.15;2.95;;;;;;;;;;3584250;40;20056;-61
2021/07/21 14:04:27;;;;;;;7.78;3.40;;;;;;;;;;3582666;40;20206;-60
2021/07/21 14:06:53;;;;;;;18.55;3.92;;;;;;;;;;3582124;40;20125;-62
2021/07/21 14:09:20;;;;;;;5.57;3.45;;;;;;;;;;3582604;40;20514;-61
2021/07/21 14:11:47;;;;;;;5.20;3.13;;;;;;;;;;3582280;40;20044;-62
2021/07/21 14:14:13;;;;;;;4.85;3.53;;;;;;;;;;3581283;40;20040;-61
2021/07/21 14:16:40;;;;;;;7.35;4.15;;;;;;;;;;3583414;40;20150;-62
2021/07/21 14:19:06;;;;;;;5.65;3.38;;;;;;;;;;3580967;40;20048;-61
2021/07/21 14:21:32;;;;;;;6.07;3.80;;;;;;;;;;3581174;40;20036;-62
2021/07/21 14:23:58;;;;;;;9.85;3.92;;;;;;;;;;3583371;40;20766;-60
2021/07/21 14:26:28;;;;;;;6.72;3.90;;;;;;;;;;3581951;40;20046;-60
2021/07/21 14:28:54;;;;;;;7.60;3.47;;;;;;;;;;3584545;40;20136;-60
2021/07/21 14:31:21;;;;;;;7.78;3.88;;;;;;;;;;3584585;40;20054;-61
2021/07/21 14:33:47;;;;;;;5.47;3.85;;;;;;;;;;3583160;40;20108;-62
2021/07/21 14:36:13;;;;;;;5.65;3.65;;;;;;;;;;3584368;40;21556;-60
2021/07/21 14:38:40;;;;;;;5.60;3.33;;;;;;;;;;3584050;40;20029;-60
2021/07/21 14:41:07;;;;;;;6.07;3.33;;;;;;;;;;3584630;40;20323;-61
2021/07/21 14:43:32;;;;;;;4.40;3.30;;;;;;;;;;3581777;40;20258;-61
2021/07/21 14:45:59;;;;;;;6.07;3.80;;;;;;;;;;3583018;40;20047;-61
2021/07/21 14:48:25;;;;;;;5.82;3.55;;;;;;;;;;3584309;40;20133;-61
2021/07/21 14:50:51;;;;;;;5.72;3.05;;;;;;;;;;3584135;40;20408;-60
2021/07/21 14:53:18;;;;;;;5.30;3.55;;;;;;;;;;3584118;40;20155;-60
2021/07/21 14:55:43;;;;;;;10.77;3.88;;;;;;;;;;3585101;40;20045;-61
2021/07/21 14:58:11;;;;;;;6.68;4.05;;;;;;;;;;3584772;40;20594;-60
2021/07/21 15:00:37;;;;;;;7.18;4.28;;;;;;;;;;3585040;40;20276;-61